METAR、SPECI、TAF(飛行場実況・予報)


■ METAR、SPECI(飛行場実況)

METAR RJCN 130300Z 07011KT 9999 FEW015 SCT120 BKN/// 19/16 Q1003 RMK 1ST015 3AC120 A2964
METAR RJCN 130400Z 05011KT 9999 FEW010 SCT150 BKN/// 18/14 Q1004 RMK 1ST010 4AC150 A2965
METAR RJCN 130500Z 05008KT 9999 -SHRA FEW010 SCT040 BKN150 15/13 Q1004 RMK 1ST010 3CU040 6AC150 A2967
METAR RJCN 130600Z 04008KT 010V070 9999 -SHRA FEW006 BKN030 BKN090 14/12 Q1005 RMK 1ST006 5CU030 7AC090 A2968
METAR RJCN 130700Z 04006KT 010V070 6000 -SHRA FEW004 SCT040 BKN100 12/11 Q1005 RMK 1ST004 3CU040 7AC100 A2970
METAR RJCN 130700Z 04006KT 010V070 6000 -SHRA FEW004 SCT040 BKN100 12/11 Q1005 RMK 1ST004 3CU040 7AC100 A2970
METAR RJCN 130800Z VRB02KT 6000 -SHRA FEW003 BKN004 BKN040 12/12 Q1005 RMK 1ST003 5ST004 6CU040 A2969
SPECI RJCN 130838Z 03007KT 330V100 8000 -SHRA FEW003 SCT004 BKN006 11/11 Q1005 RMK 1ST003 4ST004 6ST006 A2969 P/RR
METAR RJCN 130900Z 07003KT 010V140 8000 -SHRA FEW004 SCT006 BKN140 12/11 Q1005 RMK 1ST004 4ST006 7AC140 A2970 P/RR
METAR RJCN 132330Z 06009KT 9999 FEW005 BKN020 14/11 Q1008 RMK 1ST005 7SC020 A2977
METAR RJCN 140000Z 03009KT 9999 FEW005 SCT010 BKN020 14/12 Q1008 RMK 1ST005 3ST010 7SC020 A2977
METAR RJCN 140100Z 04009KT 010V070 9999 FEW005 SCT010 BKN020 14/11 Q1008 RMK 1ST005 3ST010 7SC020 A2979
METAR RJCN 140200Z 07009KT 040V100 9999 FEW010 BKN025 15/12 Q1009 RMK 1ST010 7SC025 A2980
METAR RJCN 140300Z 06007KT 020V090 9999 FEW010 BKN025 15/12 Q1009 RMK 1ST010 7SC025 A2981
METAR RJCN 140400Z 07009KT 9999 FEW010 BKN025 15/12 Q1009 RMK 1ST010 7CU025 A2980
METAR RJCN 140500Z 04007KT 350V070 9999 FEW010 SCT025 BKN060 16/12 Q1009 RMK 1ST010 4CU025 6CU060 A2980
METAR RJCN 140600Z 04009KT 010V070 9999 FEW010 BKN020 BKN030 14/11 Q1009 RMK 1ST010 5CU020 7CU030 A2980
METAR RJCN 140700Z 06009KT 9999 FEW010 BKN020 13/10 Q1009 RMK 1ST010 7CU020 A2980
METAR RJCN 140800Z 05006KT 9999 FEW008 BKN020 12/10 Q1010 RMK 1ST008 7CU020 A2983
METAR RJCN 140900Z 06007KT 9999 FEW007 BKN020 11/10 Q1010 RMK 2ST007 7CU020 A2984
METAR RJCN 142330Z VRB02KT 6000 FEW004 BKN009 BKN010 13/11 Q1012 RMK 1ST004 5ST009 7ST010 A2988
METAR RJCN 150000Z VRB02KT 6000 FEW004 SCT009 BKN010 14/12 Q1011 RMK 1ST004 4ST009 7ST010 A2988
METAR RJCN 150100Z VRB01KT 9999 FEW006 SCT009 BKN012 15/12 Q1011 RMK 1ST006 3ST009 7ST012 A2987
METAR RJCN 150200Z VRB03KT 9999 FEW006 SCT010 BKN015 16/13 Q1011 RMK 1ST006 3ST010 7ST015 A2987
METAR RJCN 150300Z VRB02KT 9999 FEW010 BKN015 17/14 Q1010 RMK 1ST010 7ST015 A2985
METAR RJCN 150400Z 02006KT 360V080 9999 FEW010 BKN016 17/14 Q1010 RMK 1ST010 7ST016 A2984
METAR RJCN 150500Z 07005KT 040V100 9999 FEW010 BKN018 17/13 Q1010 RMK 1ST010 7ST018 A2983
METAR RJCN 150600Z 08006KT 9999 FEW010 BKN018 17/13 Q1010 RMK 1ST010 7ST018 A2982
METAR RJCN 150700Z 10005KT 9999 FEW010 BKN015 16/13 Q1010 RMK 1ST010 7ST015 A2983
METAR RJCN 150800Z 07006KT 9999 FEW007 SCT010 BKN015 15/13 Q1009 RMK 1ST007 3ST010 7ST015 A2982
METAR RJCN 150900Z 03004KT 7000 FEW006 SCT008 BKN010 13/12 Q1010 RMK 1ST006 3ST008 7ST010 A2983

■ TAF(飛行場予報)


				

お知らせ

新着情報

  • 太陽光発電量推算
  • 気象予報士試験過去問・講座
  • Yahoo Weather shop
  • メルカリ Weather shop
  • BASE Weather shop

ご案内